createdAt,value
2022-12-26T00:00:10.858Z,28.70
2022-12-26T00:01:10.773Z,28.60
2022-12-26T00:02:10.784Z,30.20
2022-12-26T00:03:10.840Z,29.10
2022-12-26T00:04:51.957Z,29.30
2022-12-26T00:05:10.672Z,27.80
2022-12-26T00:06:10.656Z,28.80
2022-12-26T00:07:10.633Z,29.60
2022-12-26T00:08:10.612Z,29.10
2022-12-26T00:09:10.583Z,28.60
2022-12-26T00:10:10.580Z,29.20
2022-12-26T00:11:10.532Z,29.70
2022-12-26T00:12:10.517Z,29.00
2022-12-26T00:13:37.631Z,29.10
2022-12-26T00:14:10.461Z,28.40
2022-12-26T00:15:10.454Z,29.60
2022-12-26T00:16:10.524Z,29.30
2022-12-26T00:17:10.383Z,28.90
2022-12-26T00:18:10.382Z,28.60
2022-12-26T00:19:10.342Z,29.70
2022-12-26T00:20:10.315Z,28.80
2022-12-26T00:21:10.289Z,28.30
2022-12-26T00:22:10.297Z,29.90
2022-12-26T00:23:10.238Z,29.60
2022-12-26T00:24:10.221Z,28.90
2022-12-26T00:25:10.195Z,29.10
2022-12-26T00:26:10.169Z,29.50
2022-12-26T00:27:10.140Z,28.30
2022-12-26T00:28:10.131Z,29.00
2022-12-26T00:29:10.089Z,27.00
2022-12-26T00:30:10.065Z,28.00
2022-12-26T00:31:10.137Z,30.20
2022-12-26T00:32:10.032Z,28.10
2022-12-26T00:33:09.991Z,27.70
2022-12-26T00:34:09.989Z,28.10
2022-12-26T00:35:09.939Z,28.30
2022-12-26T00:36:09.936Z,27.50
2022-12-26T00:37:09.900Z,26.80
2022-12-26T00:38:09.885Z,27.80
2022-12-26T00:39:09.845Z,28.60
2022-12-26T00:40:09.821Z,29.00
2022-12-26T00:41:09.798Z,29.00
2022-12-26T00:42:09.772Z,28.00
2022-12-26T00:43:09.781Z,28.10
2022-12-26T00:44:09.724Z,27.80
2022-12-26T00:45:09.697Z,28.30
2022-12-26T00:46:09.692Z,27.50
2022-12-26T00:47:09.720Z,28.30
2022-12-26T00:48:09.634Z,27.10
2022-12-26T00:49:09.603Z,28.30
2022-12-26T00:50:12.577Z,28.00
2022-12-26T00:51:09.552Z,27.30
2022-12-26T00:52:09.532Z,28.40
2022-12-26T00:53:09.508Z,28.60
2022-12-26T00:54:09.501Z,28.00
2022-12-26T00:55:09.474Z,28.30
2022-12-26T00:56:09.437Z,27.60
2022-12-26T00:57:09.416Z,28.80
2022-12-26T00:58:09.390Z,28.50
2022-12-26T00:59:09.354Z,27.10
2022-12-26T01:00:09.339Z,27.90
2022-12-26T01:01:09.486Z,28.00
2022-12-26T01:02:09.556Z,28.40
2022-12-26T01:03:09.297Z,29.80
2022-12-26T01:04:09.240Z,28.50
2022-12-26T01:05:09.208Z,28.80
2022-12-26T01:06:09.216Z,28.10
2022-12-26T01:07:09.159Z,29.60
2022-12-26T01:08:22.342Z,28.00
2022-12-26T01:09:09.110Z,30.40
2022-12-26T01:10:09.088Z,28.90
2022-12-26T01:11:09.068Z,27.70
2022-12-26T01:12:09.066Z,28.90
2022-12-26T01:13:09.019Z,28.20
2022-12-26T01:14:08.992Z,29.50
2022-12-26T01:15:08.968Z,28.20
2022-12-26T01:16:08.983Z,29.40
2022-12-26T01:17:08.922Z,29.30
2022-12-26T01:18:08.898Z,28.80
2022-12-26T01:19:08.871Z,29.00
2022-12-26T01:20:08.848Z,28.00
2022-12-26T01:21:08.818Z,28.30
2022-12-26T01:22:08.821Z,29.60
2022-12-26T01:23:08.802Z,29.70
2022-12-26T01:24:08.748Z,28.30
2022-12-26T01:25:08.724Z,29.50
2022-12-26T01:26:15.607Z,29.70
2022-12-26T01:27:08.671Z,29.70
2022-12-26T01:28:08.650Z,29.80
2022-12-26T01:29:08.622Z,29.30
2022-12-26T01:30:08.604Z,28.10
2022-12-26T01:31:08.642Z,29.30
2022-12-26T01:32:08.619Z,29.60
2022-12-26T01:33:08.539Z,29.10
2022-12-26T01:34:08.502Z,29.30
2022-12-26T01:35:08.479Z,29.40
2022-12-26T01:36:08.457Z,29.90
2022-12-26T01:37:08.426Z,28.70
2022-12-26T01:38:08.441Z,29.60
2022-12-26T01:39:08.380Z,28.10
2022-12-26T01:40:08.353Z,28.40
2022-12-26T01:41:08.333Z,28.50
2022-12-26T01:42:08.311Z,30.60
2022-12-26T01:43:08.282Z,30.30
2022-12-26T01:44:08.268Z,29.50
2022-12-26T01:45:08.234Z,30.30
2022-12-26T01:46:08.263Z,29.20
2022-12-26T01:47:08.179Z,30.10
2022-12-26T01:48:08.156Z,29.00
2022-12-26T01:49:08.132Z,30.60
2022-12-26T01:50:08.110Z,30.90
2022-12-26T01:51:08.085Z,29.80
2022-12-26T01:52:08.064Z,30.60
2022-12-26T01:53:08.038Z,31.30
2022-12-26T01:54:38.168Z,30.00
2022-12-26T01:55:07.986Z,31.40
2022-12-26T01:56:07.960Z,30.10
2022-12-26T01:57:07.945Z,28.30
2022-12-26T01:58:07.911Z,30.90
2022-12-26T01:59:07.899Z,30.50
2022-12-26T02:00:07.866Z,31.40
2022-12-26T02:01:07.938Z,30.60
2022-12-26T02:02:08.098Z,30.60
2022-12-26T02:03:07.918Z,30.90
2022-12-26T02:04:07.763Z,31.30
2022-12-26T02:05:07.793Z,30.20
2022-12-26T02:06:07.714Z,30.40
2022-12-26T02:07:07.699Z,30.20
2022-12-26T02:08:07.662Z,32.60
2022-12-26T02:09:07.639Z,31.90
2022-12-26T02:10:07.636Z,31.50
2022-12-26T02:11:07.592Z,32.20
2022-12-26T02:12:37.383Z,32.00
2022-12-26T02:13:07.545Z,32.50
2022-12-26T02:14:07.520Z,31.00
2022-12-26T02:15:07.494Z,31.40
2022-12-26T02:16:07.525Z,32.10
2022-12-26T02:17:07.446Z,32.40
2022-12-26T02:18:07.425Z,32.50
2022-12-26T02:19:07.395Z,31.60
2022-12-26T02:20:07.369Z,32.50
2022-12-26T02:21:07.348Z,32.00
2022-12-26T02:22:07.326Z,31.80
2022-12-26T02:23:07.311Z,33.60
2022-12-26T02:24:07.271Z,32.90
2022-12-26T02:25:07.253Z,33.60
2022-12-26T02:26:07.250Z,33.40
2022-12-26T02:27:07.206Z,34.60
2022-12-26T02:28:07.180Z,32.90
2022-12-26T02:29:07.163Z,33.20
2022-12-26T02:30:07.154Z,34.40
2022-12-26T02:31:07.105Z,35.20
2022-12-26T02:32:07.182Z,33.10
2022-12-26T02:33:07.063Z,33.70
2022-12-26T02:34:07.025Z,34.50
2022-12-26T02:35:07.005Z,34.70
2022-12-26T02:36:06.979Z,33.70
2022-12-26T02:37:06.951Z,32.90
2022-12-26T02:38:06.925Z,34.00
2022-12-26T02:39:45.183Z,34.50
2022-12-26T02:40:06.886Z,33.90
2022-12-26T02:41:06.867Z,35.10
2022-12-26T02:42:06.859Z,34.30
2022-12-26T02:43:06.817Z,35.20
2022-12-26T02:44:06.793Z,34.40
2022-12-26T02:45:06.758Z,33.90
2022-12-26T02:46:06.823Z,34.60
2022-12-26T02:47:06.713Z,34.60
2022-12-26T02:48:06.677Z,35.40
2022-12-26T02:49:06.663Z,35.40
2022-12-26T02:50:06.634Z,35.30
2022-12-26T02:51:06.614Z,35.60
2022-12-26T02:52:06.582Z,36.20
2022-12-26T02:53:06.563Z,36.00
2022-12-26T02:54:06.584Z,35.30
2022-12-26T02:55:06.515Z,36.00
2022-12-26T02:56:06.488Z,35.30
2022-12-26T02:57:06.457Z,34.60
2022-12-26T02:58:06.452Z,35.70
2022-12-26T02:59:06.417Z,35.20
2022-12-26T03:00:06.388Z,35.80
2022-12-26T03:01:06.432Z,34.80
2022-12-26T03:02:06.531Z,34.20
2022-12-26T03:03:06.352Z,35.10
2022-12-26T03:04:06.299Z,35.60
2022-12-26T03:05:06.266Z,34.00
2022-12-26T03:06:06.237Z,35.10
2022-12-26T03:07:06.217Z,34.30
2022-12-26T03:08:06.191Z,35.10
2022-12-26T03:09:06.169Z,35.60
2022-12-26T03:10:06.139Z,34.60
2022-12-26T03:11:06.115Z,34.90
2022-12-26T03:12:06.084Z,34.30
2022-12-26T03:13:06.070Z,34.70
2022-12-26T03:14:06.066Z,34.50
2022-12-26T03:15:06.098Z,32.70
2022-12-26T03:16:06.000Z,35.10
2022-12-26T03:17:06.070Z,33.60
2022-12-26T03:18:05.947Z,33.90
2022-12-26T03:19:05.940Z,34.10
2022-12-26T03:20:05.897Z,34.40
2022-12-26T03:21:05.868Z,34.30
2022-12-26T03:22:05.844Z,33.90
2022-12-26T03:23:05.820Z,34.00
2022-12-26T03:24:05.795Z,33.60
2022-12-26T03:25:05.772Z,34.30
2022-12-26T03:26:05.743Z,34.80
2022-12-26T03:27:05.723Z,33.20
2022-12-26T03:28:05.700Z,33.50
2022-12-26T03:29:05.679Z,32.60
2022-12-26T03:30:05.665Z,34.30
2022-12-26T03:31:05.724Z,33.40
2022-12-26T03:32:05.608Z,35.00
2022-12-26T03:33:05.581Z,33.70
2022-12-26T03:34:05.546Z,34.30
2022-12-26T03:35:05.522Z,32.80
2022-12-26T03:36:05.502Z,33.90
2022-12-26T03:37:05.476Z,34.20
2022-12-26T03:38:05.444Z,32.60
2022-12-26T03:39:05.438Z,32.70
2022-12-26T03:40:05.402Z,32.10
2022-12-26T03:41:05.385Z,32.40
2022-12-26T03:42:05.356Z,31.10
2022-12-26T03:43:05.329Z,30.30
2022-12-26T03:44:05.300Z,31.30
2022-12-26T03:45:05.282Z,31.60
2022-12-26T03:46:05.341Z,30.90
2022-12-26T03:47:05.225Z,30.90
2022-12-26T03:48:05.206Z,30.50
2022-12-26T03:49:05.178Z,31.40
2022-12-26T03:50:05.154Z,30.00
2022-12-26T03:51:05.131Z,30.30
2022-12-26T03:52:05.100Z,29.70
2022-12-26T03:53:05.083Z,28.70
2022-12-26T03:54:05.052Z,31.00
2022-12-26T03:55:05.029Z,28.80
2022-12-26T03:56:05.006Z,29.50
2022-12-26T03:57:04.991Z,29.60
2022-12-26T03:58:04.968Z,29.60
2022-12-26T03:59:04.930Z,29.50
2022-12-26T04:00:04.904Z,29.80
2022-12-26T04:01:04.994Z,27.80
2022-12-26T04:02:04.998Z,28.50
2022-12-26T04:03:04.831Z,27.70
2022-12-26T04:04:04.940Z,28.00
2022-12-26T04:05:04.796Z,25.70
2022-12-26T04:06:04.756Z,27.20
2022-12-26T04:07:04.739Z,26.10
2022-12-26T04:08:04.703Z,26.50
2022-12-26T04:09:04.678Z,26.90
2022-12-26T04:10:04.652Z,26.50
2022-12-26T04:11:04.630Z,25.70
2022-12-26T04:12:04.620Z,26.40
2022-12-26T04:13:04.590Z,26.00
2022-12-26T04:14:04.561Z,25.40
2022-12-26T04:15:04.540Z,26.60
2022-12-26T04:16:04.561Z,26.80
2022-12-26T04:17:04.487Z,25.80
2022-12-26T04:18:04.484Z,27.10
2022-12-26T04:19:04.440Z,25.90
2022-12-26T04:20:04.410Z,26.00
2022-12-26T04:21:04.386Z,27.60
2022-12-26T04:22:04.362Z,26.50
2022-12-26T04:23:04.341Z,27.00
2022-12-26T04:24:04.307Z,27.40
2022-12-26T04:25:04.283Z,27.30
2022-12-26T04:26:04.277Z,26.90
2022-12-26T04:27:04.240Z,27.10
2022-12-26T04:28:04.206Z,27.40
2022-12-26T04:29:04.191Z,27.80
2022-12-26T04:30:04.157Z,27.50
2022-12-26T04:31:04.196Z,27.70
2022-12-26T04:32:04.113Z,27.30
2022-12-26T04:33:04.088Z,29.70
2022-12-26T04:34:04.080Z,27.00
2022-12-26T04:35:04.038Z,27.00
2022-12-26T04:36:04.007Z,27.80
2022-12-26T04:37:03.989Z,26.10
2022-12-26T04:38:04.004Z,28.20
2022-12-26T04:39:03.941Z,26.50
2022-12-26T04:40:03.909Z,24.90
2022-12-26T04:41:03.890Z,25.00
2022-12-26T04:42:03.865Z,28.00
2022-12-26T04:43:47.202Z,26.70
2022-12-26T04:44:03.808Z,27.50
2022-12-26T04:45:03.792Z,25.90
2022-12-26T04:46:03.876Z,24.80
2022-12-26T04:47:03.738Z,25.70
2022-12-26T04:48:03.716Z,25.30
2022-12-26T04:49:03.705Z,24.80
2022-12-26T04:50:03.698Z,24.40
2022-12-26T04:51:03.641Z,25.40
2022-12-26T04:52:03.629Z,23.40
2022-12-26T04:53:03.613Z,24.30
2022-12-26T04:54:03.567Z,23.50
2022-12-26T04:55:03.544Z,23.70
2022-12-26T04:56:03.513Z,22.90
2022-12-26T04:57:03.490Z,22.00
2022-12-26T04:58:03.461Z,22.50
2022-12-26T04:59:03.448Z,22.70
2022-12-26T05:00:03.430Z,23.20
2022-12-26T05:01:03.436Z,22.50
2022-12-26T05:02:03.464Z,22.20
2022-12-26T05:03:03.400Z,21.80
2022-12-26T05:04:03.375Z,22.80
2022-12-26T05:05:03.291Z,22.80
2022-12-26T05:06:03.288Z,22.20
2022-12-26T05:07:03.255Z,22.00
2022-12-26T05:08:03.236Z,22.40
2022-12-26T05:09:03.204Z,21.60
2022-12-26T05:10:03.160Z,22.00
2022-12-26T05:11:03.147Z,21.90
2022-12-26T05:12:03.114Z,22.40
2022-12-26T05:13:03.093Z,23.20
2022-12-26T05:14:03.064Z,21.60
2022-12-26T05:15:03.041Z,23.10
2022-12-26T05:16:03.075Z,22.00
2022-12-26T05:17:02.991Z,21.70
2022-12-26T05:18:02.967Z,22.30
2022-12-26T05:19:02.952Z,22.20
2022-12-26T05:20:02.912Z,22.40
2022-12-26T05:21:02.892Z,21.50
2022-12-26T05:22:02.892Z,21.60
2022-12-26T05:23:02.840Z,20.70
2022-12-26T05:24:02.816Z,21.60
2022-12-26T05:25:02.797Z,21.50
2022-12-26T05:26:02.768Z,21.70
2022-12-26T05:27:02.752Z,21.30
2022-12-26T05:28:02.725Z,20.80
2022-12-26T05:29:02.695Z,21.10
2022-12-26T05:30:02.681Z,21.30
2022-12-26T05:31:02.705Z,21.90
2022-12-26T05:32:02.642Z,20.80
2022-12-26T05:33:02.589Z,20.60
2022-12-26T05:34:02.585Z,21.00
2022-12-26T05:35:02.544Z,20.60
2022-12-26T05:36:02.516Z,19.80
2022-12-26T05:37:02.493Z,21.70
2022-12-26T05:38:02.489Z,20.80
2022-12-26T05:39:02.445Z,19.80
2022-12-26T05:40:02.415Z,19.40
2022-12-26T05:41:02.393Z,19.20
2022-12-26T05:42:02.364Z,18.50
2022-12-26T05:43:02.345Z,19.60
2022-12-26T05:44:02.316Z,18.70
2022-12-26T05:45:02.305Z,20.20
2022-12-26T05:46:02.301Z,19.70
2022-12-26T05:47:02.376Z,19.50
2022-12-26T05:48:02.256Z,19.20
2022-12-26T05:49:02.195Z,19.00
2022-12-26T05:50:02.165Z,17.90
2022-12-26T05:51:02.165Z,18.90
2022-12-26T05:52:02.118Z,18.30
2022-12-26T05:53:02.104Z,19.00
2022-12-26T05:54:02.098Z,19.40
2022-12-26T05:55:02.048Z,19.20
2022-12-26T05:56:02.044Z,19.70
2022-12-26T05:57:01.997Z,19.10
2022-12-26T05:58:01.993Z,18.20
2022-12-26T05:59:01.963Z,19.50
2022-12-26T06:00:01.924Z,19.20
2022-12-26T06:01:01.894Z,18.60
2022-12-26T06:02:02.092Z,18.30
2022-12-26T06:03:01.964Z,17.80
2022-12-26T06:04:02.057Z,18.10
2022-12-26T06:05:01.794Z,17.30
2022-12-26T06:06:01.777Z,17.60
2022-12-26T06:07:01.746Z,18.60
2022-12-26T06:08:01.722Z,18.50
2022-12-26T06:09:01.695Z,17.40
2022-12-26T06:10:01.696Z,17.70
2022-12-26T06:11:01.643Z,17.80
2022-12-26T06:12:01.628Z,17.50
2022-12-26T06:13:01.611Z,18.00
2022-12-26T06:14:01.591Z,18.30
2022-12-26T06:15:01.551Z,16.90
2022-12-26T06:16:01.587Z,17.90
2022-12-26T06:17:01.501Z,17.40
2022-12-26T06:18:01.486Z,17.20
2022-12-26T06:19:01.445Z,16.60
2022-12-26T06:20:01.425Z,15.90
2022-12-26T06:21:01.394Z,16.50
2022-12-26T06:22:01.401Z,16.10
2022-12-26T06:23:01.356Z,15.90
2022-12-26T06:24:01.327Z,17.10
2022-12-26T06:25:01.297Z,15.70
2022-12-26T06:26:01.295Z,16.30
2022-12-26T06:27:01.253Z,16.00
2022-12-26T06:28:01.229Z,16.20
2022-12-26T06:29:01.196Z,14.90
2022-12-26T06:30:01.208Z,15.70
2022-12-26T06:31:01.239Z,15.50
2022-12-26T06:32:01.183Z,15.40
2022-12-26T06:33:01.100Z,15.60
2022-12-26T06:34:01.078Z,15.30
2022-12-26T06:35:01.045Z,14.60
2022-12-26T06:36:01.022Z,15.00
2022-12-26T06:37:01.012Z,16.40
2022-12-26T06:38:00.971Z,15.20
2022-12-26T06:39:00.950Z,14.90
2022-12-26T06:40:00.928Z,14.40
2022-12-26T06:41:00.896Z,15.10
2022-12-26T06:42:00.907Z,15.20
2022-12-26T06:43:00.856Z,14.20
2022-12-26T06:44:00.825Z,15.20
2022-12-26T06:45:00.794Z,14.60
2022-12-26T06:46:00.782Z,14.50
2022-12-26T06:47:00.792Z,13.90
2022-12-26T06:48:00.728Z,14.10
2022-12-26T06:49:00.697Z,14.20
2022-12-26T06:50:00.671Z,14.40
2022-12-26T06:51:00.646Z,14.20
2022-12-26T06:52:00.629Z,14.70
2022-12-26T06:53:00.599Z,14.90
2022-12-26T06:54:00.578Z,15.50
2022-12-26T06:55:00.544Z,14.90
2022-12-26T06:56:00.523Z,14.30
2022-12-26T06:57:00.516Z,14.50
2022-12-26T06:58:00.488Z,13.90
2022-12-26T06:59:00.477Z,14.80
2022-12-26T07:00:00.418Z,13.90
2022-12-26T07:01:00.510Z,14.10
2022-12-26T07:02:00.509Z,13.70
2022-12-26T07:03:00.391Z,13.60
2022-12-26T07:04:00.335Z,13.60
2022-12-26T07:05:00.297Z,13.70
2022-12-26T07:06:00.277Z,12.60
2022-12-26T07:07:00.260Z,15.00
2022-12-26T07:08:00.223Z,12.80
2022-12-26T07:09:00.194Z,13.20
2022-12-26T07:10:00.183Z,13.90
2022-12-26T07:11:00.151Z,13.90
2022-12-26T07:12:00.126Z,13.10
2022-12-26T07:13:00.122Z,13.80
2022-12-26T07:14:00.100Z,13.80
2022-12-26T07:15:01.941Z,13.00
2022-12-26T07:16:00.125Z,13.70
2022-12-26T07:17:00.000Z,13.30
2022-12-26T07:17:59.976Z,12.90
2022-12-26T07:18:59.952Z,13.80
2022-12-26T07:19:59.932Z,14.10
2022-12-26T07:20:59.896Z,14.00
2022-12-26T07:21:59.877Z,13.50
2022-12-26T07:22:59.852Z,14.00
2022-12-26T07:23:59.827Z,13.80
2022-12-26T07:24:59.801Z,12.90
2022-12-26T07:25:59.778Z,14.00
2022-12-26T07:26:59.762Z,13.10
2022-12-26T07:27:59.730Z,13.90
2022-12-26T07:28:59.700Z,12.90
2022-12-26T07:29:59.696Z,13.20
2022-12-26T07:30:59.646Z,13.80
2022-12-26T07:31:59.709Z,14.10
2022-12-26T07:32:59.601Z,14.00
2022-12-26T07:33:59.582Z,13.20
2022-12-26T07:34:59.546Z,13.40
2022-12-26T07:35:59.531Z,13.80
2022-12-26T07:36:59.497Z,13.60
2022-12-26T07:37:59.476Z,12.50
2022-12-26T07:38:59.447Z,14.00
2022-12-26T07:39:59.628Z,13.30
2022-12-26T07:40:59.397Z,13.10
2022-12-26T07:41:59.487Z,12.60
2022-12-26T07:42:59.356Z,13.70
2022-12-26T07:43:59.341Z,13.30
2022-12-26T07:44:59.334Z,12.90
2022-12-26T07:45:59.424Z,13.50
2022-12-26T07:46:59.258Z,14.00
2022-12-26T07:47:59.237Z,14.70
2022-12-26T07:48:59.229Z,14.50
2022-12-26T07:49:59.178Z,15.60
2022-12-26T07:50:59.152Z,16.20
2022-12-26T07:51:59.147Z,16.10
2022-12-26T07:52:59.095Z,15.70
2022-12-26T07:53:59.076Z,16.10
2022-12-26T07:54:59.048Z,15.80
2022-12-26T07:55:59.029Z,16.40
2022-12-26T07:57:21.707Z,15.90
2022-12-26T07:57:58.980Z,17.00
2022-12-26T07:58:58.945Z,17.40
2022-12-26T07:59:58.932Z,17.80
2022-12-26T08:00:58.949Z,17.80
2022-12-26T08:01:59.094Z,17.50
2022-12-26T08:03:06.459Z,18.10
2022-12-26T08:03:58.891Z,18.70
2022-12-26T08:04:58.795Z,18.10
2022-12-26T08:05:58.781Z,18.00
2022-12-26T08:06:58.745Z,18.60
2022-12-26T08:07:58.731Z,17.70
2022-12-26T08:08:58.692Z,19.10
2022-12-26T08:09:58.682Z,18.40
2022-12-26T08:10:58.663Z,17.70
2022-12-26T08:11:58.623Z,17.30
2022-12-26T08:12:58.592Z,17.50
2022-12-26T08:13:58.572Z,17.80
2022-12-26T08:14:58.546Z,18.10
2022-12-26T08:15:58.523Z,16.90
2022-12-26T08:16:58.629Z,16.20
2022-12-26T08:17:58.506Z,16.70
2022-12-26T08:18:58.437Z,16.20
2022-12-26T08:19:58.425Z,16.60
2022-12-26T08:20:58.393Z,15.40
2022-12-26T08:21:58.371Z,16.30
2022-12-26T08:23:58.327Z,14.80
2022-12-26T08:24:58.299Z,14.80
2022-12-26T08:25:58.277Z,14.30
2022-12-26T08:26:58.256Z,13.20
2022-12-26T08:27:58.229Z,14.10
2022-12-26T08:28:58.191Z,13.80
2022-12-26T08:29:58.188Z,14.10
2022-12-26T08:30:58.145Z,13.40
2022-12-26T08:31:58.122Z,12.10
2022-12-26T08:32:58.090Z,12.70
2022-12-26T08:33:58.098Z,12.50
2022-12-26T08:34:58.038Z,13.00
2022-12-26T08:35:58.020Z,12.40
2022-12-26T08:36:57.987Z,12.30
2022-12-26T08:37:57.970Z,12.10
2022-12-26T08:38:57.938Z,11.30
2022-12-26T08:39:57.918Z,12.60
2022-12-26T08:40:57.888Z,11.50
2022-12-26T08:41:57.867Z,11.50
2022-12-26T08:43:21.568Z,10.40
2022-12-26T08:44:57.788Z,9.60
2022-12-26T08:45:57.814Z,9.00
2022-12-26T08:46:57.744Z,9.20
2022-12-26T08:47:57.718Z,8.70
2022-12-26T08:48:57.689Z,8.90
2022-12-26T08:49:57.688Z,8.80
2022-12-26T08:50:57.642Z,8.60
2022-12-26T08:51:57.619Z,8.70
2022-12-26T08:52:57.588Z,8.60
2022-12-26T08:53:57.571Z,8.10
2022-12-26T08:54:57.539Z,8.30
2022-12-26T08:55:57.517Z,9.30
2022-12-26T08:56:57.492Z,8.90
2022-12-26T08:57:57.518Z,8.70
2022-12-26T08:58:57.445Z,7.70
2022-12-26T08:59:57.421Z,7.30
2022-12-26T09:00:57.434Z,7.50
2022-12-26T09:01:57.532Z,7.00
2022-12-26T09:02:57.444Z,6.90
2022-12-26T09:03:57.335Z,6.30
2022-12-26T09:04:57.287Z,6.80
2022-12-26T09:05:58.791Z,6.70
2022-12-26T09:06:57.245Z,7.00
2022-12-26T09:07:57.217Z,9.20
2022-12-26T09:08:57.190Z,7.40
2022-12-26T09:09:57.162Z,6.80
2022-12-26T09:10:57.147Z,5.90
2022-12-26T09:11:57.113Z,5.20
2022-12-26T09:12:57.113Z,5.60
2022-12-26T09:13:57.095Z,7.80
2022-12-26T09:14:57.037Z,5.50
2022-12-26T09:15:57.018Z,7.00
2022-12-26T09:16:57.036Z,6.00
2022-12-26T09:17:56.963Z,6.70
2022-12-26T09:18:56.940Z,5.20
2022-12-26T09:19:56.918Z,5.30
2022-12-26T09:20:56.889Z,5.10
2022-12-26T09:21:56.883Z,4.70
2022-12-26T09:22:56.836Z,5.10
2022-12-26T09:23:56.819Z,4.90
2022-12-26T09:24:56.784Z,4.90
2022-12-26T09:25:56.761Z,4.60
2022-12-26T09:26:56.732Z,4.70
2022-12-26T09:27:59.355Z,4.10
2022-12-26T09:28:56.701Z,6.60
2022-12-26T09:29:56.681Z,5.40
2022-12-26T09:30:56.662Z,3.60
2022-12-26T09:31:56.615Z,4.50
2022-12-26T09:32:56.583Z,4.00
2022-12-26T09:33:56.576Z,4.10
2022-12-26T09:34:56.537Z,3.90
2022-12-26T09:36:01.563Z,3.80
2022-12-26T09:36:56.485Z,3.30
2022-12-26T09:37:56.493Z,3.60
2022-12-26T09:38:56.438Z,3.70
2022-12-26T09:39:56.425Z,2.90
2022-12-26T09:40:56.392Z,3.30
2022-12-26T09:41:56.365Z,4.00
2022-12-26T09:42:56.345Z,3.80
2022-12-26T09:43:56.316Z,4.00
2022-12-26T09:44:56.289Z,3.80
2022-12-26T09:45:56.338Z,3.10
2022-12-26T09:46:56.235Z,3.20
2022-12-26T09:47:56.209Z,3.10
2022-12-26T09:48:56.187Z,3.40
2022-12-26T09:49:56.171Z,3.70
2022-12-26T09:50:56.135Z,4.20
2022-12-26T09:51:56.114Z,3.00
2022-12-26T09:52:56.085Z,2.80
2022-12-26T09:53:56.082Z,3.20
2022-12-26T09:54:56.030Z,3.10
2022-12-26T09:55:56.029Z,2.80
2022-12-26T09:57:05.380Z,2.80
2022-12-26T09:57:55.963Z,2.80
2022-12-26T09:58:55.934Z,2.40
2022-12-26T09:59:55.916Z,2.50
2022-12-26T10:00:55.879Z,2.60
2022-12-26T10:01:55.941Z,3.60
2022-12-26T10:02:55.839Z,2.90
2022-12-26T10:03:55.821Z,3.00
2022-12-26T10:04:55.863Z,2.70
2022-12-26T10:05:55.765Z,2.70
2022-12-26T10:06:55.747Z,2.90
2022-12-26T10:07:55.705Z,2.70
2022-12-26T10:08:55.683Z,2.70
2022-12-26T10:09:55.688Z,2.70
2022-12-26T10:10:55.632Z,2.70
2022-12-26T10:11:55.616Z,2.70
2022-12-26T10:12:55.584Z,2.70
2022-12-26T10:13:55.559Z,3.30
2022-12-26T10:14:55.535Z,3.00
2022-12-26T10:15:55.560Z,2.70
2022-12-26T10:16:55.486Z,3.20
2022-12-26T10:17:55.459Z,2.80
2022-12-26T10:18:55.441Z,2.40
2022-12-26T10:19:55.413Z,2.60
2022-12-26T10:20:55.387Z,3.00
2022-12-26T10:21:55.364Z,2.90
2022-12-26T10:22:55.342Z,2.80
2022-12-26T10:23:55.309Z,2.70
2022-12-26T10:24:55.293Z,2.60
2022-12-26T10:25:55.275Z,2.40
2022-12-26T10:26:55.240Z,2.80
2022-12-26T10:27:55.208Z,2.70
2022-12-26T10:28:55.188Z,3.00
2022-12-26T10:29:55.162Z,2.40
2022-12-26T10:30:55.279Z,2.40
2022-12-26T10:31:55.123Z,3.20
2022-12-26T10:32:55.091Z,2.90
2022-12-26T10:33:55.066Z,3.20
2022-12-26T10:34:55.055Z,3.10
2022-12-26T10:35:55.013Z,3.10
2022-12-26T10:36:54.988Z,2.90
2022-12-26T10:37:54.969Z,2.60
2022-12-26T10:38:54.969Z,2.80
2022-12-26T10:39:54.927Z,2.90
2022-12-26T10:40:54.892Z,3.00
2022-12-26T10:41:54.891Z,4.80
2022-12-26T10:42:54.841Z,3.10
2022-12-26T10:43:54.815Z,2.70
2022-12-26T10:44:54.791Z,2.90
2022-12-26T10:45:54.767Z,3.30
2022-12-26T10:46:54.757Z,5.20
2022-12-26T10:47:54.715Z,3.40
2022-12-26T10:48:54.700Z,4.90
2022-12-26T10:49:54.664Z,4.00
2022-12-26T10:50:54.642Z,2.80
2022-12-26T10:51:54.635Z,2.60
2022-12-26T10:52:54.596Z,2.50
2022-12-26T10:53:54.568Z,2.30
2022-12-26T10:55:27.467Z,2.50
2022-12-26T10:55:54.515Z,2.40
2022-12-26T10:56:54.493Z,2.30
2022-12-26T10:57:54.479Z,2.30
2022-12-26T10:58:54.446Z,2.30
2022-12-26T10:59:54.509Z,2.10
2022-12-26T11:00:54.392Z,2.30
2022-12-26T11:01:54.444Z,2.20
2022-12-26T11:02:54.525Z,2.00
2022-12-26T11:03:54.402Z,2.40
2022-12-26T11:05:15.631Z,2.50
2022-12-26T11:06:07.652Z,2.60
2022-12-26T11:06:54.242Z,2.40
2022-12-26T11:07:54.245Z,2.40
2022-12-26T11:08:54.186Z,3.10
2022-12-26T11:09:54.176Z,2.80
2022-12-26T11:10:54.157Z,2.40
2022-12-26T11:11:54.133Z,2.10
2022-12-26T11:12:54.110Z,2.10
2022-12-26T11:14:00.950Z,2.00
2022-12-26T11:14:54.044Z,2.10
2022-12-26T11:15:54.120Z,2.10
2022-12-26T11:16:53.996Z,2.30
2022-12-26T11:17:53.969Z,2.70
2022-12-26T11:18:53.943Z,2.00
2022-12-26T11:19:53.915Z,2.00
2022-12-26T11:20:53.893Z,2.10
2022-12-26T11:21:53.867Z,1.70
2022-12-26T11:22:53.846Z,1.80
2022-12-26T11:23:53.819Z,2.00
2022-12-26T11:24:53.793Z,2.00
2022-12-26T11:25:53.766Z,1.90
2022-12-26T11:26:53.744Z,2.20
2022-12-26T11:27:53.732Z,2.00
2022-12-26T11:28:53.696Z,2.30
2022-12-26T11:29:53.808Z,2.10
2022-12-26T11:30:53.701Z,2.40
2022-12-26T11:31:53.618Z,1.70
2022-12-26T11:32:53.596Z,1.70
2022-12-26T11:33:53.566Z,1.90
2022-12-26T11:34:53.547Z,1.90
2022-12-26T11:35:53.518Z,2.00
2022-12-26T11:36:53.500Z,1.70
2022-12-26T11:37:53.467Z,1.70
2022-12-26T11:38:53.445Z,1.50
2022-12-26T11:39:53.428Z,1.90
2022-12-26T11:40:53.399Z,2.40
2022-12-26T11:41:53.394Z,1.60
2022-12-26T11:42:53.349Z,1.70
2022-12-26T11:43:53.330Z,1.90
2022-12-26T11:44:53.301Z,1.70
2022-12-26T11:45:53.344Z,1.80
2022-12-26T11:46:53.324Z,1.50
2022-12-26T11:47:53.218Z,2.50
2022-12-26T11:48:53.199Z,2.10
2022-12-26T11:49:53.184Z,1.80
2022-12-26T11:50:53.159Z,2.00
2022-12-26T11:51:58.738Z,1.60
2022-12-26T11:52:53.108Z,1.60
2022-12-26T11:53:53.077Z,1.90
2022-12-26T11:54:53.053Z,2.10
2022-12-26T11:55:53.028Z,1.80
2022-12-26T11:56:53.007Z,1.90
2022-12-26T11:57:56.913Z,1.80
2022-12-26T11:58:52.952Z,1.80
2022-12-26T11:59:52.938Z,1.80
2022-12-26T12:00:52.904Z,2.00
2022-12-26T12:01:52.956Z,1.60
2022-12-26T12:02:52.895Z,1.60
2022-12-26T12:03:52.894Z,1.80
2022-12-26T12:04:52.814Z,2.00
2022-12-26T12:05:52.777Z,1.60
2022-12-26T12:06:52.755Z,2.20
2022-12-26T12:07:52.726Z,2.10
2022-12-26T12:08:52.711Z,2.20
2022-12-26T12:09:52.684Z,2.10
2022-12-26T12:10:52.655Z,1.90
2022-12-26T12:11:52.631Z,2.20
2022-12-26T12:12:52.611Z,2.00
2022-12-26T12:13:52.576Z,2.30
2022-12-26T12:14:54.730Z,2.10
2022-12-26T12:15:52.528Z,2.20
2022-12-26T12:16:52.572Z,2.20
2022-12-26T12:17:52.510Z,2.20
2022-12-26T12:18:52.461Z,2.00
2022-12-26T12:19:52.431Z,2.00
2022-12-26T12:20:52.406Z,2.10
2022-12-26T12:21:52.382Z,2.10
2022-12-26T12:22:52.357Z,2.60
2022-12-26T12:23:52.339Z,2.40
2022-12-26T12:24:52.309Z,2.20
2022-12-26T12:25:52.277Z,2.10
2022-12-26T12:26:56.658Z,2.10
2022-12-26T12:27:52.243Z,2.20
2022-12-26T12:28:52.217Z,2.10
2022-12-26T12:29:52.190Z,2.50
2022-12-26T12:30:52.164Z,2.60
2022-12-26T12:31:52.163Z,2.40
2022-12-26T12:32:57.027Z,2.70
2022-12-26T12:33:52.108Z,2.00
2022-12-26T12:34:52.063Z,2.20
2022-12-26T12:35:52.031Z,2.30
2022-12-26T12:36:52.012Z,2.50
2022-12-26T12:37:51.986Z,1.90
2022-12-26T12:38:56.328Z,2.00
2022-12-26T12:39:51.939Z,2.10
2022-12-26T12:40:51.912Z,2.50
2022-12-26T12:41:51.893Z,3.30
2022-12-26T12:42:51.866Z,2.30
2022-12-26T12:43:51.832Z,3.30
2022-12-26T12:44:56.594Z,2.40
2022-12-26T12:45:51.891Z,3.80
2022-12-26T12:46:51.762Z,2.70
2022-12-26T12:47:51.737Z,2.70
2022-12-26T12:48:51.728Z,2.80
2022-12-26T12:49:51.708Z,3.10
2022-12-26T12:50:56.724Z,2.80
2022-12-26T12:51:51.638Z,2.90
2022-12-26T12:52:51.619Z,3.30
2022-12-26T12:53:51.608Z,4.00
2022-12-26T12:54:51.567Z,3.70
2022-12-26T12:55:51.532Z,3.80
2022-12-26T12:56:51.516Z,4.50
2022-12-26T12:57:51.490Z,5.70
2022-12-26T12:58:51.460Z,4.50
2022-12-26T12:59:51.431Z,5.30
2022-12-26T13:00:51.417Z,5.50
2022-12-26T13:01:51.618Z,6.00
2022-12-26T13:02:51.471Z,4.30